Time;durP1;ratioP1;P1;durP2;ratioP2;P2;SDS_P1;SDS_P2;PMS_P1;PMS_P2;Temp;Humidity;BMP_temperature;BMP_pressure;BME280_temperature;BME280_humidity;BME280_pressure;Samples;Min_cycle;Max_cycle;Signal;HPM_P1;HPM_P2
2024/01/18 00:00:48;;;;;;;2.08;1.02;;;-2.00;99.90;;;;;;5095596;27;20095;-66
2024/01/18 00:03:14;;;;;;;2.03;1.08;;;-2.00;99.90;;;;;;5091421;28;20040;-66
2024/01/18 00:05:40;;;;;;;0.55;0.55;;;-2.00;99.90;;;;;;5099255;28;20047;-66
2024/01/18 00:08:06;;;;;;;0.15;0.15;;;-1.90;99.90;;;;;;5103334;27;20035;-66
2024/01/18 00:10:31;;;;;;;0.95;0.75;;;-1.90;99.90;;;;;;5084862;27;20117;-66
2024/01/18 00:12:57;;;;;;;1.15;1.05;;;-1.90;99.90;;;;;;5093592;28;20093;-66
2024/01/18 00:15:24;;;;;;;6.90;1.75;;;-1.70;99.90;;;;;;5079029;28;20047;-65
2024/01/18 00:17:49;;;;;;;0.90;0.88;;;-1.60;99.90;;;;;;5093144;28;20446;-65
2024/01/18 00:20:15;;;;;;;28.27;1.88;;;-1.60;99.90;;;;;;5091201;28;20038;-65
2024/01/18 00:22:41;;;;;;;0.40;0.40;;;-1.50;99.90;;;;;;5097639;27;20075;-66
2024/01/18 00:25:07;;;;;;;0.65;0.65;;;-1.40;99.90;;;;;;5084624;28;20059;-66
2024/01/18 00:27:33;;;;;;;5.68;1.75;;;-1.30;99.90;;;;;;5103714;27;20482;-66
2024/01/18 00:29:58;;;;;;;0.15;0.15;;;-1.30;99.90;;;;;;5099614;28;20089;-65
2024/01/18 00:32:24;;;;;;;1.85;1.42;;;-1.30;99.90;;;;;;5095788;28;20038;-66
2024/01/18 00:34:51;;;;;;;0.57;0.57;;;-1.30;99.90;;;;;;5095980;28;20039;-66
2024/01/18 00:37:17;;;;;;;1.40;1.30;;;-1.30;99.90;;;;;;5095969;28;20088;-66
2024/01/18 00:39:43;;;;;;;3.78;1.83;;;-1.30;99.90;;;;;;5088767;28;20482;-66
2024/01/18 00:42:10;;;;;;;0.52;0.52;;;-1.40;99.90;;;;;;5088242;28;20118;-66
2024/01/18 00:44:35;;;;;;;0.50;0.50;;;-1.50;99.90;;;;;;5088157;28;20039;-66
2024/01/18 00:47:02;;;;;;;0.93;0.93;;;-1.50;99.90;;;;;;5090997;28;20088;-66
2024/01/18 00:49:28;;;;;;;0.52;0.52;;;-1.50;99.90;;;;;;5088780;28;20080;-66
2024/01/18 00:51:54;;;;;;;0.35;0.35;;;-1.60;99.90;;;;;;5091338;28;20035;-66
2024/01/18 00:54:19;;;;;;;2.95;1.35;;;-1.60;99.90;;;;;;5086956;28;20386;-66
2024/01/18 00:56:45;;;;;;;0.60;0.60;;;-1.60;99.90;;;;;;5091597;28;20031;-66
2024/01/18 00:59:10;;;;;;;0.90;0.40;;;-1.60;99.90;;;;;;5084916;28;20117;-66
2024/01/18 01:01:36;;;;;;;0.80;0.80;;;-1.60;99.90;;;;;;5091547;28;20036;-66
2024/01/18 01:04:01;;;;;;;1.23;0.88;;;-1.60;99.90;;;;;;5071829;28;20040;-65
2024/01/18 01:06:27;;;;;;;1.38;1.02;;;-1.60;99.90;;;;;;5085816;28;20044;-66
2024/01/18 01:08:53;;;;;;;0.55;0.55;;;-1.50;99.90;;;;;;5096871;28;20393;-66
2024/01/18 01:11:18;;;;;;;3.97;0.77;;;-1.50;99.90;;;;;;5087713;28;20070;-66
2024/01/18 01:13:44;;;;;;;0.47;0.47;;;-1.40;99.90;;;;;;5073952;28;20031;-66
2024/01/18 01:16:11;;;;;;;0.50;0.50;;;-1.40;99.90;;;;;;5101046;28;20459;-66
2024/01/18 01:18:37;;;;;;;0.52;0.52;;;-1.30;99.90;;;;;;5104212;28;20038;-66
2024/01/18 01:21:03;;;;;;;2.92;0.82;;;-1.30;99.90;;;;;;5100866;28;20510;-66
2024/01/18 01:23:29;;;;;;;0.45;0.45;;;-1.30;99.90;;;;;;5094485;28;20561;-66
2024/01/18 01:25:55;;;;;;;1.55;1.17;;;-1.30;99.90;;;;;;5086511;28;20071;-66
2024/01/18 01:28:21;;;;;;;1.55;1.13;;;-1.30;99.90;;;;;;5088421;28;20086;-66
2024/01/18 01:30:46;;;;;;;0.63;0.40;;;-1.30;99.90;;;;;;5096092;27;20059;-66
2024/01/18 01:33:12;;;;;;;0.15;0.15;;;-1.30;99.90;;;;;;5097098;27;20031;-66
2024/01/18 01:35:37;;;;;;;0.20;0.20;;;-1.30;99.90;;;;;;5092053;28;20043;-66
2024/01/18 01:38:03;;;;;;;0.47;0.47;;;-1.30;99.90;;;;;;5092867;27;20084;-66
2024/01/18 01:40:29;;;;;;;0.73;0.73;;;-1.30;99.90;;;;;;5088674;28;20051;-66
2024/01/18 01:42:54;;;;;;;4.15;0.70;;;-1.30;99.90;;;;;;5096885;27;20067;-66
2024/01/18 01:45:20;;;;;;;0.20;0.20;;;-1.40;99.90;;;;;;5091435;27;20063;-66
2024/01/18 01:47:45;;;;;;;0.40;0.40;;;-1.50;99.90;;;;;;5095476;28;20522;-66
2024/01/18 01:50:11;;;;;;;0.40;0.40;;;-1.60;99.90;;;;;;5102926;27;20035;-66
2024/01/18 01:52:39;;;;;;;0.77;0.45;;;-1.60;99.90;;;;;;5093435;28;20040;-66
2024/01/18 01:55:08;;;;;;;0.52;0.52;;;-1.70;99.90;;;;;;5087225;27;20059;-66
2024/01/18 01:57:35;;;;;;;0.13;0.13;;;-1.80;99.90;;;;;;5110277;27;20082;-66
2024/01/18 02:00:02;;;;;;;0.47;0.45;;;-1.80;99.90;;;;;;5081771;27;20051;-66
2024/01/18 02:02:27;;;;;;;0.20;0.20;;;-1.90;99.90;;;;;;5094612;27;20038;-66
2024/01/18 02:04:54;;;;;;;0.30;0.30;;;-1.90;99.90;;;;;;5092188;27;20390;-66
2024/01/18 02:07:22;;;;;;;0.20;0.20;;;-1.90;99.90;;;;;;5105747;27;20064;-66
2024/01/18 02:09:47;;;;;;;0.17;0.17;;;-2.00;99.90;;;;;;5091934;27;20062;-66
2024/01/18 02:12:14;;;;;;;0.43;0.43;;;-2.00;99.90;;;;;;5090982;28;20036;-66
2024/01/18 02:14:40;;;;;;;0.28;0.28;;;-2.10;99.90;;;;;;5096612;27;20436;-66
2024/01/18 02:17:06;;;;;;;0.43;0.43;;;-2.00;99.90;;;;;;5101713;27;20046;-66
2024/01/18 02:19:32;;;;;;;0.10;0.10;;;-2.00;99.90;;;;;;5092955;27;20444;-66
2024/01/18 02:21:59;;;;;;;0.30;0.30;;;-2.00;99.90;;;;;;5092232;27;20039;-66
2024/01/18 02:24:33;;;;;;;0.57;0.57;;;-2.00;99.90;;;;;;5090949;27;20734;-66
2024/01/18 02:26:59;;;;;;;1.00;0.80;;;-2.10;99.90;;;;;;5101436;27;20044;-66
2024/01/18 02:29:24;;;;;;;0.30;0.30;;;-2.10;99.90;;;;;;5087064;27;20047;-66
2024/01/18 02:31:50;;;;;;;0.20;0.20;;;-2.20;99.90;;;;;;5115394;27;20035;-66
2024/01/18 02:34:17;;;;;;;0.35;0.35;;;-2.30;99.90;;;;;;5102372;28;20032;-66
2024/01/18 02:36:44;;;;;;;0.20;0.20;;;-2.40;99.90;;;;;;5095544;27;20032;-66
2024/01/18 02:39:10;;;;;;;0.40;0.40;;;-2.40;99.90;;;;;;5098959;27;20063;-66
2024/01/18 02:41:35;;;;;;;0.68;0.68;;;-2.40;99.90;;;;;;5103214;28;20051;-66
2024/01/18 02:44:01;;;;;;;0.13;0.13;;;-2.40;99.90;;;;;;5095874;27;20141;-66
2024/01/18 02:46:33;;;;;;;0.70;0.70;;;-2.40;99.90;;;;;;5099780;27;20079;-66
2024/01/18 02:48:59;;;;;;;0.25;0.25;;;-2.50;99.90;;;;;;5091720;28;20050;-67
2024/01/18 02:51:25;;;;;;;0.10;0.10;;;-2.60;99.90;;;;;;5093001;27;20037;-66
2024/01/18 02:53:50;;;;;;;0.10;0.10;;;-2.70;99.90;;;;;;5098984;27;20035;-66
2024/01/18 02:56:16;;;;;;;0.20;0.20;;;-2.80;99.90;;;;;;5092284;28;20390;-66
2024/01/18 02:58:41;;;;;;;0.28;0.28;;;-2.90;99.90;;;;;;5096510;28;20035;-67
2024/01/18 03:01:09;;;;;;;0.40;0.40;;;-3.00;99.90;;;;;;5091988;28;20100;-67
2024/01/18 03:03:35;;;;;;;0.10;0.10;;;-3.20;99.90;;;;;;5093858;27;20490;-66
2024/01/18 03:06:00;;;;;;;0.10;0.10;;;-3.20;99.90;;;;;;5099100;27;20054;-66
2024/01/18 03:08:26;;;;;;;0.20;0.20;;;-3.20;99.90;;;;;;5087896;27;20043;-66
2024/01/18 03:10:52;;;;;;;0.50;0.50;;;-3.20;99.90;;;;;;5067937;28;20482;-66
2024/01/18 03:13:18;;;;;;;0.80;0.80;;;-3.10;99.90;;;;;;5096228;28;20047;-66
2024/01/18 03:15:44;;;;;;;0.20;0.20;;;-3.10;99.90;;;;;;5090506;27;20241;-66
2024/01/18 03:18:09;;;;;;;0.43;0.43;;;-3.00;99.90;;;;;;5095232;27;20031;-66
2024/01/18 03:20:35;;;;;;;0.20;0.20;;;-3.00;99.90;;;;;;5100851;27;20482;-66
2024/01/18 03:23:01;;;;;;;0.40;0.40;;;-3.20;99.90;;;;;;5091479;28;20036;-66
2024/01/18 03:25:26;;;;;;;0.17;0.17;;;-3.40;99.90;;;;;;5085304;28;20096;-66
2024/01/18 03:27:52;;;;;;;0.10;0.10;;;-3.40;99.90;;;;;;5105535;27;20031;-66
2024/01/18 03:30:17;;;;;;;0.10;0.10;;;-3.50;99.90;;;;;;5076678;27;20527;-66
2024/01/18 03:32:43;;;;;;;0.55;0.55;;;-3.40;99.90;;;;;;5099020;27;20031;-66
2024/01/18 03:35:09;;;;;;;4.30;0.65;;;-3.40;99.90;;;;;;5087501;27;20084;-66
2024/01/18 03:37:34;;;;;;;0.10;0.10;;;-3.40;99.90;;;;;;5095730;27;20050;-67
2024/01/18 03:40:00;;;;;;;0.20;0.20;;;-3.30;99.90;;;;;;5094289;27;20039;-66
2024/01/18 03:42:25;;;;;;;0.10;0.10;;;-3.20;99.90;;;;;;5097796;27;20040;-66
2024/01/18 03:44:51;;;;;;;0.63;0.55;;;-3.20;99.90;;;;;;5097584;27;20450;-67
2024/01/18 03:47:16;;;;;;;0.82;0.82;;;-3.30;99.90;;;;;;5095137;28;20390;-66
2024/01/18 03:49:43;;;;;;;0.35;0.35;;;-3.30;99.90;;;;;;5092699;28;20654;-67
2024/01/18 03:52:10;;;;;;;0.20;0.20;;;-3.40;99.90;;;;;;5091161;27;20101;-66
2024/01/18 03:54:35;;;;;;;0.35;0.35;;;-3.40;99.90;;;;;;5073062;27;20073;-66
2024/01/18 03:57:01;;;;;;;0.45;0.38;;;-3.50;99.90;;;;;;5092024;28;20549;-66
2024/01/18 03:59:26;;;;;;;0.50;0.47;;;-3.50;99.90;;;;;;5105550;27;20105;-66
2024/01/18 04:01:52;;;;;;;1.25;0.63;;;-3.50;99.90;;;;;;5092537;28;20067;-66
2024/01/18 04:04:17;;;;;;;0.13;0.13;;;-3.50;99.90;;;;;;5087444;28;20035;-66
2024/01/18 04:06:43;;;;;;;0.10;0.10;;;-3.30;99.90;;;;;;5090199;28;20051;-66
2024/01/18 04:09:08;;;;;;;0.10;0.10;;;-3.20;99.90;;;;;;5089842;27;20051;-66
2024/01/18 04:11:34;;;;;;;0.40;0.40;;;-3.10;99.90;;;;;;5089706;28;20046;-66
2024/01/18 04:14:00;;;;;;;1.55;0.30;;;-3.00;99.90;;;;;;5089636;27;20048;-66
2024/01/18 04:16:26;;;;;;;0.15;0.15;;;-2.90;99.90;;;;;;5088058;27;20066;-66
2024/01/18 04:18:51;;;;;;;0.15;0.15;;;-2.90;99.90;;;;;;5094690;28;20031;-66
2024/01/18 04:21:17;;;;;;;0.15;0.15;;;-2.90;99.90;;;;;;5107547;27;20047;-66
2024/01/18 04:23:42;;;;;;;0.10;0.10;;;-2.80;99.90;;;;;;5096273;28;20051;-66
2024/01/18 04:26:08;;;;;;;0.17;0.17;;;-2.90;99.90;;;;;;5103882;27;20489;-66
2024/01/18 04:28:34;;;;;;;0.20;0.20;;;-2.80;99.90;;;;;;5092265;27;20041;-66
2024/01/18 04:30:59;;;;;;;0.20;0.20;;;-2.90;99.90;;;;;;5084685;28;20084;-66
2024/01/18 04:33:25;;;;;;;1.00;0.50;;;-2.80;99.90;;;;;;5098157;27;20039;-66
2024/01/18 04:35:50;;;;;;;0.10;0.10;;;-2.70;99.90;;;;;;5086714;28;20464;-66
2024/01/18 04:38:16;;;;;;;0.08;0.08;;;-2.70;99.90;;;;;;5095672;28;20389;-66
2024/01/18 04:40:41;;;;;;;0.65;0.65;;;-2.70;99.90;;;;;;5095081;28;20043;-66
2024/01/18 04:43:07;;;;;;;0.10;0.10;;;-2.70;99.90;;;;;;5093181;28;20390;-66
2024/01/18 04:45:32;;;;;;;0.85;0.63;;;-2.70;99.90;;;;;;5090937;28;20043;-66
2024/01/18 04:47:58;;;;;;;0.20;0.20;;;-2.80;99.90;;;;;;5097743;28;20039;-66
2024/01/18 04:50:24;;;;;;;0.90;0.90;;;-2.80;99.90;;;;;;5087647;28;20050;-66
2024/01/18 04:52:53;;;;;;;0.30;0.30;;;-3.00;99.90;;;;;;5084957;28;20040;-67
2024/01/18 04:55:20;;;;;;;0.10;0.10;;;-3.10;99.90;;;;;;5091459;28;20049;-66
2024/01/18 04:57:47;;;;;;;0.10;0.10;;;-3.20;99.90;;;;;;5077830;28;20035;-66
2024/01/18 05:00:13;;;;;;;0.10;0.10;;;-3.20;99.90;;;;;;5090665;28;20036;-66
2024/01/18 05:02:39;;;;;;;0.10;0.10;;;-3.30;99.90;;;;;;5091171;28;20077;-66
2024/01/18 05:05:08;;;;;;;0.20;0.20;;;-3.30;99.90;;;;;;5087794;27;20035;-66
2024/01/18 05:07:36;;;;;;;0.10;0.10;;;-3.30;99.90;;;;;;5094831;28;20120;-66
2024/01/18 05:10:06;;;;;;;0.90;0.50;;;-3.40;99.90;;;;;;5110460;27;20443;-66
2024/01/18 05:12:32;;;;;;;0.20;0.15;;;-3.40;99.90;;;;;;5094295;28;20070;-67
2024/01/18 05:14:58;;;;;;;0.45;0.45;;;-3.50;99.90;;;;;;5098662;27;20024;-66
2024/01/18 05:17:30;;;;;;;0.20;0.20;;;-3.60;99.90;;;;;;5095873;27;20444;-66
2024/01/18 05:19:55;;;;;;;0.30;0.30;;;-3.60;99.90;;;;;;5100030;27;20494;-66
2024/01/18 05:22:21;;;;;;;0.10;0.10;;;-3.60;99.90;;;;;;5094941;27;20042;-66
2024/01/18 05:24:46;;;;;;;0.10;0.10;;;-3.60;99.90;;;;;;5092499;27;20047;-66
2024/01/18 05:27:13;;;;;;;0.10;0.10;;;-3.50;99.90;;;;;;5082493;27;20070;-66
2024/01/18 05:29:38;;;;;;;0.10;0.10;;;-3.40;99.90;;;;;;5098807;27;20039;-66
2024/01/18 05:32:04;;;;;;;0.10;0.10;;;-3.20;99.90;;;;;;5108495;27;20032;-66
2024/01/18 05:34:29;;;;;;;1.08;0.57;;;-3.00;99.90;;;;;;5076868;28;20444;-66
2024/01/18 05:36:55;;;;;;;0.20;0.20;;;-2.70;99.90;;;;;;5089994;27;20039;-65
2024/01/18 05:39:21;;;;;;;0.20;0.20;;;-2.70;99.90;;;;;;5097937;27;20047;-66
2024/01/18 05:41:46;;;;;;;0.10;0.10;;;-2.60;99.90;;;;;;5073478;27;20088;-66
2024/01/18 05:44:12;;;;;;;0.10;0.10;;;-2.50;99.90;;;;;;5100467;27;20035;-66
2024/01/18 05:46:37;;;;;;;0.10;0.10;;;-2.40;99.90;;;;;;5075175;27;20093;-66
2024/01/18 05:49:03;;;;;;;0.10;0.10;;;-2.50;99.90;;;;;;5093995;28;20083;-66
2024/01/18 05:51:29;;;;;;;0.30;0.30;;;-2.50;99.90;;;;;;5088454;28;20105;-66
2024/01/18 05:53:55;;;;;;;0.10;0.10;;;-2.50;99.90;;;;;;5099512;27;20039;-66
2024/01/18 05:56:21;;;;;;;0.10;0.10;;;-2.50;99.90;;;;;;5095418;28;20046;-66
2024/01/18 05:58:46;;;;;;;0.20;0.20;;;-2.50;99.90;;;;;;5096575;27;20450;-66
2024/01/18 06:01:12;;;;;;;0.10;0.10;;;-2.60;99.90;;;;;;5100649;27;20422;-66
2024/01/18 06:03:38;;;;;;;0.13;0.13;;;-2.60;99.90;;;;;;5097085;27;20569;-66
2024/01/18 06:06:04;;;;;;;0.35;0.35;;;-2.70;99.90;;;;;;5090036;27;20488;-66
2024/01/18 06:08:30;;;;;;;0.10;0.10;;;-2.70;99.90;;;;;;5093500;27;20043;-66
2024/01/18 06:10:55;;;;;;;0.20;0.20;;;-2.70;99.90;;;;;;5094878;27;20059;-66
2024/01/18 06:13:21;;;;;;;0.10;0.10;;;-2.90;99.90;;;;;;5089019;27;20031;-67
2024/01/18 06:15:46;;;;;;;0.20;0.20;;;-2.90;99.90;;;;;;5092093;27;20478;-66
2024/01/18 06:18:14;;;;;;;0.20;0.20;;;-2.90;99.90;;;;;;5096907;27;20485;-66
2024/01/18 06:20:40;;;;;;;0.10;0.10;;;-2.90;99.90;;;;;;5105645;27;20047;-65
2024/01/18 06:23:06;;;;;;;0.10;0.10;;;-2.90;99.90;;;;;;5089988;28;20096;-66
2024/01/18 06:25:31;;;;;;;0.10;0.10;;;-2.90;99.90;;;;;;5089639;27;20036;-66
2024/01/18 06:27:57;;;;;;;0.20;0.20;;;-2.80;99.90;;;;;;5088670;27;20126;-66
2024/01/18 06:30:24;;;;;;;0.10;0.10;;;-2.80;99.90;;;;;;5094026;27;20050;-66
2024/01/18 06:32:49;;;;;;;0.15;0.15;;;-2.70;99.90;;;;;;5088944;27;20070;-66
2024/01/18 06:35:15;;;;;;;0.10;0.10;;;-2.70;99.90;;;;;;5088881;27;20333;-67
2024/01/18 06:37:42;;;;;;;0.10;0.10;;;-2.60;99.90;;;;;;5090331;27;20063;-66
2024/01/18 06:40:09;;;;;;;0.10;0.10;;;-2.50;99.90;;;;;;5095756;28;20390;-66
2024/01/18 06:42:34;;;;;;;0.10;0.10;;;-2.40;99.90;;;;;;5096905;28;20043;-66
2024/01/18 06:45:02;;;;;;;0.30;0.30;;;-2.30;99.90;;;;;;5099025;27;20520;-66
2024/01/18 06:47:28;;;;;;;0.20;0.20;;;-2.20;99.90;;;;;;5093944;27;20170;-66
2024/01/18 06:49:53;;;;;;;0.10;0.10;;;-2.10;99.90;;;;;;5100913;27;20119;-66
2024/01/18 06:52:20;;;;;;;0.30;0.30;;;-2.00;99.90;;;;;;5109949;27;20046;-66
2024/01/18 06:54:46;;;;;;;0.30;0.30;;;-2.00;99.90;;;;;;5102230;27;20031;-66
2024/01/18 06:57:11;;;;;;;0.13;0.13;;;-1.90;99.90;;;;;;5101800;27;20359;-66
2024/01/18 06:59:45;;;;;;;0.57;0.57;;;-1.90;99.90;;;;;;5088207;27;20040;-66
2024/01/18 07:02:10;;;;;;;1.70;0.32;;;-2.00;99.90;;;;;;5085399;27;20115;-66
2024/01/18 07:04:36;;;;;;;0.10;0.10;;;-2.00;99.90;;;;;;5098106;27;20241;-66
2024/01/18 07:07:03;;;;;;;0.10;0.10;;;-2.00;99.90;;;;;;5090946;28;20071;-66
2024/01/18 07:09:29;;;;;;;0.20;0.20;;;-2.00;99.90;;;;;;5102039;27;20464;-66
2024/01/18 07:11:54;;;;;;;0.30;0.20;;;-1.90;99.90;;;;;;5093258;27;20043;-67
2024/01/18 07:14:21;;;;;;;0.10;0.10;;;-2.00;99.90;;;;;;5088324;27;20032;-66
2024/01/18 07:16:47;;;;;;;0.10;0.10;;;-2.00;99.90;;;;;;5099893;27;20100;-67
2024/01/18 07:19:12;;;;;;;0.10;0.10;;;-2.00;99.90;;;;;;5091047;27;20470;-67
2024/01/18 07:21:38;;;;;;;0.10;0.10;;;-2.10;99.90;;;;;;5099682;27;20386;-67
2024/01/18 07:24:04;;;;;;;0.10;0.10;;;-2.10;99.90;;;;;;5089131;28;20034;-67
2024/01/18 07:26:31;;;;;;;0.10;0.10;;;-2.20;99.90;;;;;;5092679;27;20108;-67
2024/01/18 07:28:57;;;;;;;0.10;0.10;;;-2.20;99.90;;;;;;5097209;27;20059;-67
2024/01/18 07:31:22;;;;;;;0.10;0.10;;;-2.30;99.90;;;;;;5101920;27;20074;-67
2024/01/18 07:33:50;;;;;;;1.55;0.45;;;-2.40;99.90;;;;;;5094656;27;20039;-67
2024/01/18 07:36:16;;;;;;;0.10;0.10;;;-2.60;99.90;;;;;;5099502;27;20605;-67
2024/01/18 07:38:41;;;;;;;0.20;0.20;;;-2.70;99.90;;;;;;5087396;28;20486;-67
2024/01/18 07:41:07;;;;;;;0.57;0.47;;;-2.70;99.90;;;;;;5075214;27;20050;-67
2024/01/18 07:43:33;;;;;;;0.10;0.10;;;-2.70;99.90;;;;;;5093877;28;20040;-68
2024/01/18 07:45:58;;;;;;;0.25;0.25;;;-2.70;99.90;;;;;;5090438;27;20035;-67
2024/01/18 07:48:25;;;;;;;0.10;0.10;;;-2.70;99.90;;;;;;5107024;27;20067;-67
2024/01/18 07:50:50;;;;;;;0.10;0.10;;;-2.60;99.90;;;;;;5088726;28;20055;-67
2024/01/18 07:53:16;;;;;;;0.10;0.10;;;-2.50;99.90;;;;;;5087773;28;20055;-67
2024/01/18 07:55:43;;;;;;;0.10;0.10;;;-2.50;99.90;;;;;;5095019;27;20046;-67
2024/01/18 07:58:08;;;;;;;0.20;0.20;;;-2.50;99.90;;;;;;5089654;28;20506;-67
2024/01/18 08:00:34;;;;;;;0.10;0.10;;;-2.50;99.90;;;;;;5103499;27;20043;-67
2024/01/18 08:02:59;;;;;;;0.17;0.17;;;-2.60;99.90;;;;;;5083096;28;20039;-67
2024/01/18 08:05:27;;;;;;;0.10;0.10;;;-2.90;99.90;;;;;;5099048;28;20342;-67
2024/01/18 08:07:53;;;;;;;0.10;0.10;;;-3.00;99.90;;;;;;5084155;28;20138;-67
2024/01/18 08:10:18;;;;;;;0.20;0.20;;;-3.00;99.90;;;;;;5094810;27;20415;-67
2024/01/18 08:12:44;;;;;;;0.10;0.10;;;-3.00;99.90;;;;;;5087936;28;20640;-67
2024/01/18 08:15:11;;;;;;;0.20;0.20;;;-3.10;99.90;;;;;;5088807;28;20036;-67
2024/01/18 08:17:37;;;;;;;0.20;0.20;;;-3.10;99.90;;;;;;5091906;27;20073;-67
2024/01/18 08:20:12;;;;;;;2.20;0.70;;;-3.00;99.90;;;;;;5089788;27;20031;-67
2024/01/18 08:22:39;;;;;;;6.22;0.73;;;-2.80;99.90;;;;;;5100951;28;20394;-67
2024/01/18 08:25:06;;;;;;;0.10;0.10;;;-2.70;99.90;;;;;;5087795;27;20546;-68
2024/01/18 08:27:32;;;;;;;0.10;0.10;;;-2.60;99.90;;;;;;5095733;27;20378;-68
2024/01/18 08:29:58;;;;;;;0.20;0.20;;;-2.50;99.90;;;;;;5090056;28;20035;-68
2024/01/18 08:32:31;;;;;;;0.10;0.10;;;-2.50;99.90;;;;;;5094112;28;20031;-67
2024/01/18 08:34:57;;;;;;;0.10;0.10;;;-2.40;99.90;;;;;;5086290;27;20545;-67
2024/01/18 08:37:23;;;;;;;0.08;0.08;;;-2.30;99.90;;;;;;5095805;27;20060;-67
2024/01/18 08:39:49;;;;;;;0.32;0.32;;;-2.30;99.90;;;;;;5086650;28;20047;-68
2024/01/18 08:42:15;;;;;;;0.10;0.10;;;-2.20;99.90;;;;;;5089271;28;20067;-68
2024/01/18 08:44:45;;;;;;;0.30;0.30;;;-2.20;99.90;;;;;;5086022;28;20494;-67
2024/01/18 08:47:11;;;;;;;0.15;0.15;;;-2.10;99.90;;;;;;5099500;28;20050;-68
2024/01/18 08:49:37;;;;;;;0.10;0.10;;;-2.00;99.90;;;;;;5089410;28;20081;-68
2024/01/18 08:52:03;;;;;;;0.17;0.17;;;-1.90;99.90;;;;;;5084494;28;20097;-67
2024/01/18 08:54:28;;;;;;;0.13;0.13;;;-1.80;99.90;;;;;;5081250;28;20047;-67
2024/01/18 08:56:54;;;;;;;0.10;0.10;;;-1.80;99.90;;;;;;5096310;28;20070;-67
2024/01/18 08:59:20;;;;;;;0.17;0.17;;;-1.70;99.90;;;;;;5072214;28;20077;-68
2024/01/18 09:01:47;;;;;;;1.40;1.40;;;-1.60;99.90;;;;;;5089630;28;20118;-67
2024/01/18 09:04:13;;;;;;;0.40;0.40;;;-1.50;99.90;;;;;;5088854;28;20110;-67
2024/01/18 09:06:38;;;;;;;0.40;0.40;;;-1.40;99.90;;;;;;5094469;28;20172;-68
2024/01/18 09:09:09;;;;;;;1.45;0.63;;;-1.40;99.90;;;;;;5072126;28;20436;-67
2024/01/18 09:11:35;;;;;;;2.50;1.45;;;-1.40;99.90;;;;;;5088690;28;20047;-68
2024/01/18 09:14:01;;;;;;;15.55;2.42;;;-1.50;99.90;;;;;;5086111;28;20058;-68
2024/01/18 09:16:27;;;;;;;1.58;1.33;;;-1.50;99.90;;;;;;5085316;28;20602;-68
2024/01/18 09:18:53;;;;;;;1.55;1.13;;;-1.40;99.90;;;;;;5082528;28;20043;-68
2024/01/18 09:21:19;;;;;;;1.63;1.30;;;-1.40;99.90;;;;;;5083844;28;20051;-67
2024/01/18 09:23:45;;;;;;;1.58;1.48;;;-1.30;99.90;;;;;;5095466;28;20402;-68
2024/01/18 09:26:11;;;;;;;2.03;0.95;;;-1.20;99.90;;;;;;5087721;28;20050;-68
2024/01/18 09:28:37;;;;;;;0.52;0.52;;;-1.10;99.90;;;;;;5088403;28;20039;-67
2024/01/18 09:31:02;;;;;;;3.22;0.90;;;-1.10;99.90;;;;;;5089032;28;20501;-68
2024/01/18 09:33:28;;;;;;;9.82;1.38;;;-1.00;99.90;;;;;;5099595;28;20601;-68
2024/01/18 09:35:54;;;;;;;2.03;1.73;;;-0.90;99.90;;;;;;5080613;28;20044;-68
2024/01/18 09:38:19;;;;;;;5.47;1.38;;;-0.70;99.90;;;;;;5086641;28;20464;-67
2024/01/18 09:40:46;;;;;;;3.58;0.80;;;-0.70;99.90;;;;;;5086439;28;20516;-68
2024/01/18 09:43:15;;;;;;;0.50;0.50;;;-0.60;99.90;;;;;;5091429;28;20032;-68
2024/01/18 09:45:47;;;;;;;0.30;0.30;;;-0.50;99.90;;;;;;5109145;28;20038;-68
2024/01/18 09:48:14;;;;;;;0.63;0.40;;;-0.40;99.90;;;;;;5084559;28;20401;-68
2024/01/18 09:50:44;;;;;;;0.43;0.43;;;-0.50;99.90;;;;;;5100803;28;20059;-68
2024/01/18 09:53:11;;;;;;;0.30;0.30;;;-0.40;99.90;;;;;;5075108;28;20039;-68
2024/01/18 09:55:36;;;;;;;0.17;0.17;;;-0.30;99.90;;;;;;5073562;28;20104;-67
2024/01/18 09:58:03;;;;;;;0.77;0.77;;;-0.30;99.90;;;;;;5093361;28;20067;-68
2024/01/18 10:00:31;;;;;;;0.73;0.73;;;-0.20;99.90;;;;;;5079701;28;20046;-67
2024/01/18 10:02:57;;;;;;;0.17;0.17;;;-0.10;99.90;;;;;;5094001;28;20035;-67
2024/01/18 10:05:25;;;;;;;0.65;0.57;;;-0.10;99.90;;;;;;5089690;28;20040;-68
2024/01/18 10:07:51;;;;;;;0.17;0.17;;;0.10;99.90;;;;;;5110085;28;20047;-67
2024/01/18 10:10:18;;;;;;;0.22;0.22;;;0.10;99.90;;;;;;5083330;28;20127;-67
2024/01/18 10:12:46;;;;;;;0.22;0.22;;;0.20;99.90;;;;;;5087034;28;20413;-66
2024/01/18 10:15:28;;;;;;;0.40;0.40;;;0.40;99.90;;;;;;5072821;28;20035;-66
2024/01/18 10:17:53;;;;;;;0.43;0.43;;;0.50;99.90;;;;;;5112203;28;20040;-66
2024/01/18 10:20:19;;;;;;;2.17;1.02;;;0.50;99.90;;;;;;5091281;28;20052;-68
2024/01/18 10:22:45;;;;;;;0.20;0.20;;;0.70;99.90;;;;;;5082794;28;20048;-68
2024/01/18 10:25:14;;;;;;;0.20;0.20;;;0.70;99.90;;;;;;5076120;28;20074;-67
2024/01/18 10:27:42;;;;;;;0.40;0.30;;;0.80;99.90;;;;;;5085316;28;20060;-67
2024/01/18 10:30:10;;;;;;;0.17;0.17;;;0.90;99.90;;;;;;5092309;28;20082;-68
2024/01/18 10:32:39;;;;;;;0.30;0.30;;;1.10;99.90;;;;;;5095285;28;20402;-68
2024/01/18 10:35:05;;;;;;;0.20;0.20;;;1.10;99.90;;;;;;5088479;28;20066;-67
2024/01/18 10:37:32;;;;;;;0.50;0.50;;;1.20;99.90;;;;;;5098654;27;20374;-68
2024/01/18 10:39:57;;;;;;;0.52;0.52;;;1.30;99.90;;;;;;5088077;28;20539;-68
2024/01/18 10:42:23;;;;;;;0.20;0.20;;;1.40;99.90;;;;;;5088485;28;20039;-68
2024/01/18 10:44:50;;;;;;;1.75;0.98;;;1.30;99.90;;;;;;5074096;28;20039;-67
2024/01/18 10:47:16;;;;;;;0.75;0.30;;;1.30;99.90;;;;;;5087458;27;20447;-68
2024/01/18 10:49:44;;;;;;;0.40;0.40;;;1.40;99.90;;;;;;5086671;28;20113;-68
2024/01/18 10:52:11;;;;;;;0.28;0.28;;;1.40;99.90;;;;;;5091008;28;20459;-67
2024/01/18 10:54:37;;;;;;;1.38;1.27;;;1.50;99.90;;;;;;5093845;28;20563;-67
2024/01/18 10:57:04;;;;;;;0.55;0.55;;;1.60;99.90;;;;;;5088813;28;20402;-67
2024/01/18 10:59:30;;;;;;;0.10;0.10;;;1.70;99.90;;;;;;5086208;27;20078;-66
2024/01/18 11:01:59;;;;;;;0.70;0.70;;;1.70;99.90;;;;;;5086975;27;20063;-67
2024/01/18 11:04:30;;;;;;;1.35;1.08;;;1.80;99.90;;;;;;5096690;28;20486;-67
2024/01/18 11:06:58;;;;;;;0.90;0.28;;;1.90;99.90;;;;;;5096803;28;20531;-67
2024/01/18 11:09:26;;;;;;;0.10;0.10;;;2.00;99.90;;;;;;5097711;28;20434;-68
2024/01/18 11:11:53;;;;;;;0.55;0.55;;;2.10;99.90;;;;;;5093472;28;20368;-67
2024/01/18 11:14:20;;;;;;;0.35;0.35;;;2.10;99.90;;;;;;5099237;28;20127;-67
2024/01/18 11:16:45;;;;;;;0.55;0.43;;;2.10;99.90;;;;;;5111410;27;20496;-67
2024/01/18 11:19:12;;;;;;;0.20;0.20;;;2.20;99.90;;;;;;5074202;28;20036;-67
2024/01/18 11:21:40;;;;;;;0.15;0.15;;;2.20;99.90;;;;;;5087169;27;20039;-67
2024/01/18 11:24:10;;;;;;;0.30;0.28;;;2.30;99.90;;;;;;5097496;27;20094;-68
2024/01/18 11:26:43;;;;;;;0.10;0.10;;;2.40;99.90;;;;;;5101044;28;20032;-68
2024/01/18 11:29:34;;;;;;;0.20;0.20;;;2.60;99.90;;;;;;5104784;28;20107;-69
2024/01/18 11:32:11;;;;;;;0.50;0.50;;;2.70;99.90;;;;;;5095173;28;20476;-70
2024/01/18 11:34:40;;;;;;;0.20;0.20;;;2.80;99.90;;;;;;5091016;28;20038;-68
2024/01/18 11:37:13;;;;;;;1.05;0.47;;;2.80;99.90;;;;;;5098094;28;20078;-68
2024/01/18 11:39:59;;;;;;;0.65;0.65;;;2.90;99.90;;;;;;5103850;27;20391;-68
2024/01/18 11:42:30;;;;;;;0.20;0.20;;;3.10;99.90;;;;;;5098023;27;20050;-69
2024/01/18 11:45:17;;;;;;;0.30;0.30;;;3.10;99.90;;;;;;5092655;27;20490;-69
2024/01/18 11:47:43;;;;;;;0.10;0.10;;;3.20;99.90;;;;;;5094049;28;20482;-69
2024/01/18 11:50:11;;;;;;;0.13;0.13;;;3.30;99.90;;;;;;5100001;27;20040;-71
2024/01/18 11:52:38;;;;;;;0.85;0.85;;;3.10;99.90;;;;;;5093670;28;20157;-68
2024/01/18 11:55:11;;;;;;;0.40;0.40;;;3.00;99.90;;;;;;5092969;28;20124;-68
2024/01/18 11:57:37;;;;;;;;;;;2.90;99.90;;;;;;5095291;28;20031;-69
2024/01/18 12:00:04;;;;;;;0.30;0.30;;;2.80;99.90;;;;;;5080994;28;19926;-67
2024/01/18 12:02:30;;;;;;;0.20;0.20;;;2.80;99.90;;;;;;5101072;27;20057;-68
2024/01/18 12:04:56;;;;;;;0.15;0.15;;;2.60;99.90;;;;;;5081667;28;20406;-68
2024/01/18 12:07:26;;;;;;;0.20;0.20;;;2.50;99.90;;;;;;5085718;28;20067;-67
2024/01/18 12:09:52;;;;;;;0.10;0.10;;;2.60;99.90;;;;;;5084017;28;20051;-68
2024/01/18 12:12:18;;;;;;;0.25;0.25;;;2.70;99.90;;;;;;5083232;28;20031;-68
2024/01/18 12:14:45;;;;;;;0.20;0.20;;;2.90;99.90;;;;;;5085586;28;20083;-69
2024/01/18 12:17:12;;;;;;;0.10;0.10;;;3.00;99.90;;;;;;5082524;28;20362;-68
2024/01/18 12:19:40;;;;;;;0.13;0.13;;;2.90;99.90;;;;;;5084434;28;20075;-69
2024/01/18 12:22:13;;;;;;;0.10;0.10;;;2.80;99.90;;;;;;5087473;27;20050;-69
2024/01/18 12:24:39;;;;;;;0.32;0.32;;;2.70;99.90;;;;;;5081821;28;20043;-69
2024/01/18 12:27:06;;;;;;;0.30;0.30;;;2.60;99.90;;;;;;5089299;28;20126;-68
2024/01/18 12:29:33;;;;;;;0.10;0.10;;;2.50;99.90;;;;;;5101057;28;20144;-67
2024/01/18 12:32:00;;;;;;;0.10;0.10;;;2.50;99.90;;;;;;5096798;27;20078;-68
2024/01/18 12:34:27;;;;;;;0.10;0.10;;;2.50;99.90;;;;;;5091132;28;20520;-68
2024/01/18 12:36:54;;;;;;;0.10;0.10;;;2.50;99.90;;;;;;5091677;28;20036;-68
2024/01/18 12:39:20;;;;;;;0.17;0.17;;;2.40;99.90;;;;;;5084961;28;20052;-68
2024/01/18 12:41:49;;;;;;;0.20;0.20;;;2.40;99.90;;;;;;5107242;28;20397;-67
2024/01/18 12:44:15;;;;;;;0.38;0.38;;;2.50;99.90;;;;;;5086588;28;21122;-69